createdAt,value
2022-09-13T00:04:37.125Z,14.68
2022-09-13T00:09:43.662Z,13.75
2022-09-13T00:14:49.838Z,14.56
2022-09-13T00:19:56.341Z,14.61
2022-09-13T00:25:02.403Z,14.28
2022-09-13T00:30:08.587Z,14.71
2022-09-13T00:35:14.674Z,15.63
2022-09-13T00:40:20.969Z,14.90
2022-09-13T00:45:27.320Z,15.17
2022-09-13T00:50:33.462Z,14.35
2022-09-13T00:55:39.676Z,15.00
2022-09-13T01:00:45.846Z,14.74
2022-09-13T01:05:51.929Z,15.10
2022-09-13T01:10:58.155Z,15.10
2022-09-13T01:16:04.609Z,15.66
2022-09-13T01:21:10.699Z,16.15
2022-09-13T01:26:16.803Z,16.36
2022-09-13T01:31:23.440Z,16.00
2022-09-13T01:36:29.984Z,15.09
2022-09-13T01:41:36.457Z,15.40
2022-09-13T01:46:42.936Z,15.64
2022-09-13T01:51:49.176Z,15.47
2022-09-13T01:56:55.274Z,15.52
2022-09-13T02:02:01.570Z,14.30
2022-09-13T02:07:08.447Z,13.30
2022-09-13T02:12:14.700Z,13.96
2022-09-13T02:17:21.086Z,13.64
2022-09-13T02:22:28.078Z,13.71
2022-09-13T02:27:34.192Z,13.21
2022-09-13T02:32:40.726Z,13.65
2022-09-13T02:37:46.786Z,13.11
2022-09-13T02:42:53.091Z,13.21
2022-09-13T02:47:59.233Z,13.74
2022-09-13T02:53:05.456Z,13.36
2022-09-13T02:58:11.894Z,13.46
2022-09-13T03:03:18.313Z,13.60
2022-09-13T03:08:24.470Z,14.20
2022-09-13T03:13:30.648Z,13.09
2022-09-13T03:18:36.857Z,13.91
2022-09-13T03:23:43.287Z,12.80
2022-09-13T03:28:50.007Z,13.87
2022-09-13T03:33:56.221Z,13.49
2022-09-13T03:39:02.324Z,13.09
2022-09-13T03:44:08.961Z,13.28
2022-09-13T03:49:15.880Z,13.11
2022-09-13T03:54:22.053Z,13.04
2022-09-13T03:59:28.148Z,12.94
2022-09-13T04:04:34.359Z,12.99
2022-09-13T04:09:40.551Z,12.58
2022-09-13T04:14:46.712Z,12.13
2022-09-13T04:19:52.878Z,11.84
2022-09-13T04:25:02.196Z,11.11
2022-09-13T04:30:05.694Z,11.10
2022-09-13T04:35:12.012Z,12.04
2022-09-13T04:40:18.538Z,11.71
2022-09-13T04:45:24.730Z,11.35
2022-09-13T04:50:30.879Z,11.58
2022-09-13T04:55:37.069Z,11.98
2022-09-13T05:00:43.272Z,12.20
2022-09-13T05:05:49.359Z,11.56
2022-09-13T05:10:55.754Z,12.11
2022-09-13T05:16:02.034Z,11.92
2022-09-13T05:21:08.201Z,12.43
2022-09-13T05:26:14.468Z,13.43
2022-09-13T05:31:20.602Z,13.34
2022-09-13T05:36:26.992Z,13.49
2022-09-13T05:41:33.225Z,11.96
2022-09-13T05:46:39.580Z,11.74
2022-09-13T05:51:45.821Z,11.54
2022-09-13T05:56:52.834Z,10.45
2022-09-13T06:01:59.347Z,10.78
2022-09-13T06:07:05.594Z,10.30
2022-09-13T06:12:11.674Z,10.93
2022-09-13T06:17:17.883Z,11.24
2022-09-13T06:22:24.226Z,11.38
2022-09-13T06:27:30.836Z,12.87
2022-09-13T06:32:36.936Z,11.92
2022-09-13T06:37:43.197Z,10.67
2022-09-13T06:42:49.319Z,10.20
2022-09-13T06:47:55.877Z,13.07
2022-09-13T06:53:02.136Z,13.36
2022-09-13T06:58:08.319Z,13.20
2022-09-13T07:03:14.431Z,13.60
2022-09-13T07:08:20.775Z,11.19
2022-09-13T07:13:27.336Z,14.35
2022-09-13T07:18:33.536Z,12.26
2022-09-13T07:23:39.690Z,12.90
2022-09-13T07:28:46.016Z,12.08
2022-09-13T07:33:52.036Z,11.99
2022-09-13T07:38:58.241Z,9.24
2022-09-13T07:44:04.348Z,6.23
2022-09-13T07:49:10.561Z,4.60
2022-09-13T07:54:16.750Z,3.25
2022-09-13T07:59:26.951Z,3.02
2022-09-13T08:04:29.405Z,2.96
2022-09-13T08:09:34.392Z,2.85
2022-09-13T08:14:40.450Z,2.22
2022-09-13T08:19:46.756Z,2.04
2022-09-13T08:24:52.870Z,2.22
2022-09-13T08:29:59.033Z,2.12
2022-09-13T08:35:05.246Z,1.67
2022-09-13T08:40:11.577Z,1.71
2022-09-13T08:45:17.598Z,1.56
2022-09-13T08:50:23.784Z,1.68
2022-09-13T08:55:29.880Z,2.01
2022-09-13T09:00:37.052Z,1.64
2022-09-13T09:05:43.237Z,1.26
2022-09-13T09:10:49.458Z,1.42
2022-09-13T09:15:56.401Z,1.47
2022-09-13T09:21:02.563Z,1.28
2022-09-13T09:26:08.642Z,1.26
2022-09-13T09:31:15.031Z,1.98
2022-09-13T09:36:21.049Z,1.48
2022-09-13T09:41:27.310Z,1.23
2022-09-13T09:46:33.402Z,1.39
2022-09-13T09:51:39.838Z,1.46
2022-09-13T09:56:45.936Z,1.43
2022-09-13T10:01:52.427Z,1.32
2022-09-13T10:06:58.447Z,1.25
2022-09-13T10:12:04.614Z,1.20
2022-09-13T10:17:10.806Z,1.14
2022-09-13T10:22:17.014Z,1.27
2022-09-13T10:27:23.511Z,0.98
2022-09-13T10:32:29.791Z,1.54
2022-09-13T10:37:35.889Z,1.20
2022-09-13T10:42:42.093Z,1.09
2022-09-13T10:47:48.261Z,1.36
2022-09-13T10:52:54.627Z,1.20
2022-09-13T10:58:00.709Z,1.40
2022-09-13T11:03:07.008Z,1.07
2022-09-13T11:08:13.128Z,1.39
2022-09-13T11:13:19.332Z,1.23
2022-09-13T11:18:25.467Z,1.17
2022-09-13T11:23:31.859Z,1.22
2022-09-13T11:28:38.096Z,1.39
2022-09-13T11:33:44.302Z,1.45
2022-09-13T11:38:50.370Z,1.38
2022-09-13T11:43:56.783Z,1.06
2022-09-13T11:49:02.870Z,1.42
2022-09-13T11:54:09.183Z,1.45
2022-09-13T11:59:15.693Z,1.06
2022-09-13T12:04:20.933Z,1.13
2022-09-13T12:09:27.015Z,1.02
2022-09-13T12:14:33.185Z,1.49
2022-09-13T12:19:39.230Z,1.16
2022-09-13T12:24:45.400Z,1.42
2022-09-13T12:29:51.450Z,1.00
2022-09-13T12:34:57.915Z,1.04
2022-09-13T12:40:04.120Z,1.32
2022-09-13T12:45:10.823Z,1.15
2022-09-13T12:50:43.007Z,1.29
2022-09-13T12:55:45.526Z,1.40
2022-09-13T13:00:28.360Z,1.63
2022-09-13T13:05:34.566Z,1.28
2022-09-13T13:10:40.678Z,1.47
2022-09-13T13:15:50.109Z,1.15
2022-09-13T13:20:52.583Z,0.95
2022-09-13T13:25:58.746Z,1.10
2022-09-13T13:31:04.814Z,1.25
2022-09-13T13:36:11.032Z,1.21
2022-09-13T13:41:17.191Z,1.08
2022-09-13T13:46:23.329Z,1.12
2022-09-13T13:51:29.451Z,1.07
2022-09-13T13:56:35.726Z,1.15
2022-09-13T14:01:41.905Z,1.24
2022-09-13T14:06:49.937Z,1.14
2022-09-13T14:11:53.901Z,1.31
2022-09-13T14:17:00.228Z,1.57
2022-09-13T14:22:06.348Z,1.51
2022-09-13T14:27:12.536Z,1.63
2022-09-13T14:32:18.648Z,1.87
2022-09-13T14:37:24.808Z,1.58
2022-09-13T14:42:31.023Z,1.52
2022-09-13T14:47:37.327Z,1.44
2022-09-13T14:52:43.534Z,1.50
2022-09-13T14:57:50.374Z,1.62
2022-09-13T15:02:56.920Z,1.53
2022-09-13T15:08:03.325Z,1.63
2022-09-13T15:13:09.877Z,1.48
2022-09-13T15:18:16.418Z,1.46
2022-09-13T15:23:23.059Z,1.76
2022-09-13T15:28:30.404Z,1.71
2022-09-13T15:33:35.514Z,1.57
2022-09-13T15:38:42.299Z,1.26
2022-09-13T15:43:48.454Z,1.79
2022-09-13T15:48:54.574Z,1.97
2022-09-13T15:54:00.629Z,1.33
2022-09-13T15:59:06.960Z,1.34
2022-09-13T16:04:13.069Z,1.67
2022-09-13T16:09:19.282Z,1.60
2022-09-13T16:14:25.402Z,1.71
2022-09-13T16:19:31.625Z,1.30
2022-09-13T16:24:38.121Z,1.67
2022-09-13T16:29:44.359Z,1.53
2022-09-13T16:34:50.577Z,1.66
2022-09-13T16:39:56.862Z,1.04
2022-09-13T16:45:03.237Z,1.44
2022-09-13T16:50:09.779Z,1.21
2022-09-13T16:55:15.889Z,1.39
2022-09-13T17:00:22.388Z,1.65
2022-09-13T17:05:28.594Z,1.28
2022-09-13T17:10:34.897Z,1.32
2022-09-13T17:15:41.067Z,1.71
2022-09-13T17:20:47.252Z,1.48
2022-09-13T17:25:53.394Z,1.14
2022-09-13T17:31:02.319Z,1.30
2022-09-13T17:36:05.325Z,1.16
2022-09-13T17:41:11.591Z,1.43
2022-09-13T17:46:20.016Z,1.06
2022-09-13T17:51:26.283Z,1.31
2022-09-13T17:56:32.352Z,1.16
2022-09-13T18:01:38.713Z,1.36
2022-09-13T18:06:44.767Z,1.71
2022-09-13T18:11:51.148Z,1.36
2022-09-13T18:16:57.246Z,1.22
2022-09-13T18:22:03.773Z,1.84
2022-09-13T18:27:10.456Z,1.14
2022-09-13T18:32:16.585Z,1.76
2022-09-13T18:37:23.489Z,1.48
2022-09-13T18:42:33.267Z,1.48
2022-09-13T18:47:35.909Z,1.44
2022-09-13T18:52:42.440Z,1.44
2022-09-13T18:57:48.730Z,1.17
2022-09-13T19:03:11.266Z,1.56
2022-09-13T19:08:00.837Z,1.29
2022-09-13T19:13:07.075Z,1.34
2022-09-13T19:18:13.253Z,1.08
2022-09-13T19:23:19.518Z,1.34
2022-09-13T19:28:25.598Z,1.34
2022-09-13T19:33:31.908Z,1.29
2022-09-13T19:38:38.053Z,1.58
2022-09-13T19:43:44.368Z,1.22
2022-09-13T19:48:50.621Z,1.43
2022-09-13T19:53:57.734Z,1.53
2022-09-13T19:59:02.855Z,1.58
2022-09-13T20:04:09.998Z,1.18
2022-09-13T20:09:16.461Z,1.33
2022-09-13T20:14:23.493Z,1.40
2022-09-13T20:19:40.943Z,1.50
2022-09-13T20:24:35.314Z,1.52
2022-09-13T20:29:42.381Z,1.32
2022-09-13T20:34:48.560Z,1.19
2022-09-13T20:39:54.704Z,1.18
2022-09-13T20:45:00.807Z,1.02
2022-09-13T20:50:06.915Z,1.51
2022-09-13T20:55:13.269Z,1.31
2022-09-13T21:00:19.772Z,1.12
2022-09-13T21:05:26.039Z,1.45
2022-09-13T21:10:32.119Z,1.33
2022-09-13T21:15:38.534Z,1.25
2022-09-13T21:20:45.458Z,1.34
2022-09-13T21:25:51.713Z,1.31
2022-09-13T21:30:57.846Z,1.30
2022-09-13T21:36:04.301Z,1.50
2022-09-13T21:41:10.402Z,1.28
2022-09-13T21:46:17.177Z,1.36
2022-09-13T21:51:22.320Z,1.48
2022-09-13T21:56:29.414Z,1.25
2022-09-13T22:01:35.541Z,1.33
2022-09-13T22:06:41.841Z,1.43
2022-09-13T22:11:48.526Z,1.32
2022-09-13T22:16:54.889Z,1.61
2022-09-13T22:22:00.928Z,1.62
2022-09-13T22:27:07.394Z,1.35
2022-09-13T22:32:13.494Z,1.57
2022-09-13T22:37:20.083Z,1.31
2022-09-13T22:42:26.168Z,1.35
2022-09-13T22:47:32.358Z,1.47
2022-09-13T22:52:38.471Z,1.47
2022-09-13T22:57:45.621Z,1.66
2022-09-13T23:02:51.770Z,1.52
2022-09-13T23:07:57.940Z,1.63
2022-09-13T23:13:04.372Z,1.52
2022-09-13T23:18:10.576Z,1.72
2022-09-13T23:23:16.811Z,2.17
2022-09-13T23:28:23.347Z,1.67
2022-09-13T23:33:29.813Z,1.66
2022-09-13T23:38:36.777Z,1.70
2022-09-13T23:43:43.383Z,1.70
2022-09-13T23:48:50.189Z,2.01
2022-09-13T23:53:56.269Z,1.91
2022-09-13T23:59:02.407Z,1.98
